createdAt,value
2023-01-11T00:00:02.869Z,77
2023-01-11T00:20:02.657Z,77
2023-01-11T00:40:02.927Z,76
2023-01-11T01:00:02.451Z,76
2023-01-11T01:20:03.191Z,76
2023-01-11T01:40:02.686Z,76
2023-01-11T02:00:03.191Z,76
2023-01-11T02:20:02.793Z,75
2023-01-11T02:40:03.264Z,75
2023-01-11T03:00:02.639Z,74
2023-01-11T03:20:02.286Z,73
2023-01-11T03:40:02.938Z,73
2023-01-11T04:00:02.307Z,72
2023-01-11T04:20:02.937Z,71
2023-01-11T04:40:02.307Z,71
2023-01-11T05:00:02.636Z,71
2023-01-11T05:20:02.274Z,71
2023-01-11T05:40:02.843Z,71
2023-01-11T06:00:03.278Z,71
2023-01-11T06:20:02.268Z,71
2023-01-11T06:40:02.601Z,72
2023-01-11T07:00:02.994Z,72
2023-01-11T07:20:02.565Z,72
2023-01-11T07:40:02.908Z,72
2023-01-11T08:00:02.275Z,72
2023-01-11T08:20:03.987Z,73
2023-01-11T08:40:02.400Z,73
2023-01-11T09:00:02.708Z,73
2023-01-11T09:20:03.255Z,73
2023-01-11T09:40:02.913Z,74
2023-01-11T10:00:02.542Z,74
2023-01-11T10:20:03.183Z,75
2023-01-11T10:40:02.510Z,75
2023-01-11T11:00:02.881Z,76
2023-01-11T11:20:02.469Z,78
2023-01-11T11:40:03.024Z,80
2023-01-11T12:00:02.461Z,82
2023-01-11T12:20:03.188Z,84
2023-01-11T12:40:02.529Z,86
2023-01-11T13:00:02.885Z,87
2023-01-11T13:20:02.462Z,88
2023-01-11T13:40:02.874Z,89
2023-01-11T14:00:02.261Z,90
2023-01-11T14:20:02.918Z,90
2023-01-11T14:40:02.152Z,91
2023-01-11T15:00:02.925Z,91
2023-01-11T15:20:02.794Z,92
2023-01-11T15:40:03.298Z,92
2023-01-11T16:00:07.461Z,92
2023-01-11T16:20:03.396Z,93
2023-01-11T16:40:02.791Z,94
2023-01-11T17:00:03.300Z,94
2023-01-11T17:20:03.242Z,95
2023-01-11T17:40:03.115Z,95
2023-01-11T18:00:02.947Z,95
2023-01-11T18:20:04.492Z,95
2023-01-11T18:40:03.313Z,95
2023-01-11T19:00:02.956Z,95
2023-01-11T19:20:03.205Z,95
2023-01-11T19:40:02.867Z,95
2023-01-11T20:00:03.656Z,95
2023-01-11T20:20:02.862Z,95
2023-01-11T20:40:03.467Z,95
2023-01-11T21:00:03.197Z,95
2023-01-11T21:20:02.828Z,95
2023-01-11T21:40:03.301Z,95
2023-01-11T22:00:02.845Z,94
2023-01-11T22:20:02.440Z,94
2023-01-11T22:40:02.709Z,93
2023-01-11T23:00:03.026Z,92
2023-01-11T23:20:02.509Z,92
2023-01-11T23:40:02.982Z,91
